createdAt,value
2018-06-09T00:00:27.977Z,35
2018-06-09T00:01:29.998Z,35
2018-06-09T00:02:32.276Z,35
2018-06-09T00:03:34.286Z,35
2018-06-09T00:04:36.279Z,35
2018-06-09T00:05:38.288Z,35
2018-06-09T00:06:40.296Z,35
2018-06-09T00:07:42.299Z,36
2018-06-09T00:08:44.576Z,36
2018-06-09T00:09:46.584Z,36
2018-06-09T00:10:48.584Z,36
2018-06-09T00:11:50.896Z,36
2018-06-09T00:12:52.911Z,36
2018-06-09T00:13:54.907Z,36
2018-06-09T00:14:56.899Z,37
2018-06-09T00:15:58.905Z,36
2018-06-09T00:17:00.908Z,36
2018-06-09T00:18:02.911Z,37
2018-06-09T00:19:04.914Z,36
2018-06-09T00:20:06.918Z,36
2018-06-09T00:21:08.914Z,36
2018-06-09T00:22:10.909Z,36
2018-06-09T00:23:12.908Z,37
2018-06-09T00:24:14.915Z,37
2018-06-09T00:25:16.924Z,37
2018-06-09T00:26:18.923Z,37
2018-06-09T00:27:20.922Z,37
2018-06-09T00:28:22.934Z,37
2018-06-09T00:29:24.937Z,37
2018-06-09T00:30:26.947Z,37
2018-06-09T00:31:28.949Z,37
2018-06-09T00:32:30.951Z,36
2018-06-09T00:33:32.954Z,37
2018-06-09T00:34:35.235Z,37
2018-06-09T00:35:37.248Z,36
2018-06-09T00:36:39.249Z,37
2018-06-09T00:37:41.253Z,37
2018-06-09T00:38:43.248Z,36
2018-06-09T00:39:45.633Z,36
2018-06-09T00:40:47.640Z,36
2018-06-09T00:41:49.638Z,37
2018-06-09T00:42:51.636Z,36
2018-06-09T00:43:53.659Z,37
2018-06-09T00:44:55.646Z,37
2018-06-09T00:45:57.932Z,37
2018-06-09T00:47:00.368Z,37
2018-06-09T00:48:02.611Z,37
2018-06-09T00:49:04.918Z,37
2018-06-09T00:50:07.209Z,37
2018-06-09T00:51:09.212Z,37
2018-06-09T00:52:11.205Z,38
2018-06-09T00:53:13.219Z,38
2018-06-09T00:54:15.497Z,38
2018-06-09T00:55:17.509Z,38
2018-06-09T00:56:19.513Z,38
2018-06-09T00:57:21.505Z,38
2018-06-09T00:58:23.508Z,38
2018-06-09T00:59:25.793Z,39
2018-06-09T01:00:28.078Z,40
2018-06-09T01:01:30.388Z,39
2018-06-09T01:02:32.370Z,41
2018-06-09T01:03:34.378Z,40
2018-06-09T01:04:36.381Z,40
2018-06-09T01:05:38.384Z,40
2018-06-09T01:06:40.386Z,41
2018-06-09T01:07:42.390Z,41
2018-06-09T01:08:44.390Z,40
2018-06-09T01:09:46.388Z,41
2018-06-09T01:10:48.392Z,40
2018-06-09T01:11:50.411Z,40
2018-06-09T01:12:52.417Z,40
2018-06-09T01:13:54.695Z,40
2018-06-09T01:14:57.083Z,40
2018-06-09T01:16:00.047Z,40
2018-06-09T01:17:02.434Z,40
2018-06-09T01:18:04.440Z,40
2018-06-09T01:19:06.759Z,40
2018-06-09T01:20:09.324Z,41
2018-06-09T01:21:11.633Z,41
2018-06-09T01:22:13.630Z,41
2018-06-09T01:23:15.632Z,41
2018-06-09T01:24:17.636Z,41
2018-06-09T01:25:19.644Z,41
2018-06-09T01:26:21.635Z,41
2018-06-09T01:27:23.647Z,41
2018-06-09T01:28:25.934Z,41
2018-06-09T01:29:27.938Z,42
2018-06-09T01:30:29.939Z,42
2018-06-09T01:31:31.948Z,42
2018-06-09T01:32:33.951Z,42
2018-06-09T01:33:36.235Z,42
2018-06-09T01:34:38.232Z,42
2018-06-09T01:35:40.242Z,43
2018-06-09T01:36:42.523Z,43
2018-06-09T01:37:44.526Z,43
2018-06-09T01:38:46.533Z,43
2018-06-09T01:39:48.529Z,43
2018-06-09T01:40:50.816Z,43
2018-06-09T01:41:52.816Z,43
2018-06-09T01:42:55.108Z,43
2018-06-09T01:43:57.101Z,43
2018-06-09T01:44:59.101Z,43
2018-06-09T01:46:01.100Z,43
2018-06-09T01:47:03.101Z,43
2018-06-09T01:48:05.102Z,43
2018-06-09T01:49:07.108Z,44
2018-06-09T01:50:09.105Z,44
2018-06-09T01:51:11.137Z,44
2018-06-09T01:52:13.114Z,44
2018-06-09T01:53:15.111Z,44
2018-06-09T01:54:17.106Z,45
2018-06-09T01:55:19.496Z,45
2018-06-09T01:56:21.498Z,46
2018-06-09T01:57:23.891Z,46
2018-06-09T01:58:25.880Z,46
2018-06-09T01:59:27.893Z,46
2018-06-09T02:00:29.899Z,46
2018-06-09T02:01:32.167Z,46
2018-06-09T02:02:34.846Z,45
2018-06-09T02:03:36.853Z,46
2018-06-09T02:04:38.857Z,45
2018-06-09T02:05:40.866Z,46
2018-06-09T02:06:42.863Z,45
2018-06-09T02:07:44.870Z,45
2018-06-09T02:08:46.880Z,46
2018-06-09T02:09:49.460Z,45
2018-06-09T02:10:51.463Z,46
2018-06-09T02:11:53.750Z,46
2018-06-09T02:12:55.759Z,46
2018-06-09T02:13:58.332Z,46
2018-06-09T02:15:00.337Z,46
2018-06-09T02:16:02.347Z,46
2018-06-09T02:17:04.348Z,46
2018-06-09T02:18:06.636Z,46
2018-06-09T02:19:08.636Z,46
2018-06-09T02:20:10.934Z,45
2018-06-09T02:21:12.937Z,46
2018-06-09T02:22:15.318Z,46
2018-06-09T02:23:17.337Z,46
2018-06-09T02:24:19.615Z,46
2018-06-09T02:25:21.611Z,46
2018-06-09T02:26:23.902Z,45
2018-06-09T02:27:25.905Z,45
2018-06-09T02:28:27.901Z,45
2018-06-09T02:29:29.896Z,45
2018-06-09T02:30:32.183Z,45
2018-06-09T02:31:34.468Z,45
2018-06-09T02:32:36.737Z,45
2018-06-09T02:33:39.732Z,45
2018-06-09T02:34:41.733Z,44
2018-06-09T02:35:43.744Z,45
2018-06-09T02:36:46.046Z,45
2018-06-09T02:37:48.329Z,45
2018-06-09T02:38:50.337Z,45
2018-06-09T02:39:52.622Z,45
2018-06-09T02:40:54.612Z,45
2018-06-09T02:41:56.916Z,45
2018-06-09T02:42:58.913Z,44
2018-06-09T02:44:01.306Z,44
2018-06-09T02:45:04.272Z,44
2018-06-09T02:46:06.271Z,44
2018-06-09T02:47:08.281Z,44
2018-06-09T02:48:10.273Z,43
2018-06-09T02:49:12.968Z,43
2018-06-09T02:50:14.976Z,43
2018-06-09T02:51:16.974Z,43
2018-06-09T02:52:18.975Z,44
2018-06-09T02:53:21.376Z,44
2018-06-09T02:54:23.375Z,44
2018-06-09T02:55:25.389Z,44
2018-06-09T02:56:27.661Z,44
2018-06-09T02:57:29.954Z,44
2018-06-09T02:58:31.953Z,44
2018-06-09T02:59:34.240Z,45
2018-06-09T03:00:36.538Z,47
2018-06-09T03:01:39.593Z,47
2018-06-09T03:02:41.600Z,49
2018-06-09T03:03:43.604Z,48
2018-06-09T03:04:45.884Z,49
2018-06-09T03:05:47.897Z,50
2018-06-09T03:06:49.899Z,51
2018-06-09T03:07:52.565Z,51
2018-06-09T03:08:54.958Z,51
2018-06-09T03:09:57.232Z,52
2018-06-09T03:10:59.902Z,50
2018-06-09T03:12:02.623Z,50
2018-06-09T03:13:05.585Z,49
2018-06-09T03:14:07.591Z,50
2018-06-09T03:15:09.870Z,50
2018-06-09T03:16:12.578Z,50
2018-06-09T03:17:14.965Z,50
2018-06-09T03:18:17.262Z,50
2018-06-09T03:19:19.265Z,49
2018-06-09T03:20:21.260Z,50
2018-06-09T03:21:23.261Z,50
2018-06-09T03:22:25.270Z,50
2018-06-09T03:23:27.270Z,50
2018-06-09T03:24:29.268Z,50
2018-06-09T03:25:31.263Z,50
2018-06-09T03:26:33.268Z,50
2018-06-09T03:27:35.263Z,50
2018-06-09T03:28:37.546Z,50
2018-06-09T03:29:39.546Z,50
2018-06-09T03:30:41.546Z,50
2018-06-09T03:31:43.537Z,50
2018-06-09T03:32:46.484Z,50
2018-06-09T03:33:48.480Z,50
2018-06-09T03:34:50.485Z,51
2018-06-09T03:35:52.771Z,53
2018-06-09T03:36:54.771Z,52
2018-06-09T03:37:56.781Z,52
2018-06-09T03:38:58.783Z,53
2018-06-09T03:40:01.366Z,53
2018-06-09T03:41:03.393Z,53
2018-06-09T03:42:05.670Z,54
2018-06-09T03:43:07.685Z,53
2018-06-09T03:44:09.668Z,54
2018-06-09T03:45:11.950Z,54
2018-06-09T03:46:13.946Z,54
2018-06-09T03:47:15.947Z,54
2018-06-09T03:48:17.939Z,54
2018-06-09T03:49:20.228Z,54
2018-06-09T03:50:22.506Z,54
2018-06-09T03:51:24.509Z,54
2018-06-09T03:52:26.507Z,55
2018-06-09T03:53:28.508Z,55
2018-06-09T03:54:30.792Z,55
2018-06-09T03:55:33.076Z,55
2018-06-09T03:56:35.077Z,55
2018-06-09T03:57:37.080Z,54
2018-06-09T03:58:39.468Z,54
2018-06-09T03:59:41.846Z,54
2018-06-09T04:00:43.848Z,54
2018-06-09T04:01:45.846Z,54
2018-06-09T04:02:47.862Z,54
2018-06-09T04:03:50.150Z,54
2018-06-09T04:04:52.158Z,54
2018-06-09T04:05:54.546Z,54
2018-06-09T04:06:56.554Z,55
2018-06-09T04:07:58.551Z,54
2018-06-09T04:09:00.835Z,55
2018-06-09T04:10:02.837Z,55
2018-06-09T04:11:05.515Z,54
2018-06-09T04:12:07.499Z,54
2018-06-09T04:13:09.515Z,54
2018-06-09T04:14:11.499Z,54
2018-06-09T04:15:13.505Z,54
2018-06-09T04:16:15.506Z,54
2018-06-09T04:17:17.507Z,54
2018-06-09T04:18:19.510Z,54
2018-06-09T04:19:21.790Z,54
2018-06-09T04:20:23.791Z,54
2018-06-09T04:21:25.800Z,54
2018-06-09T04:22:28.065Z,55
2018-06-09T04:23:30.071Z,55
2018-06-09T04:24:32.062Z,54
2018-06-09T04:25:34.067Z,54
2018-06-09T04:26:36.341Z,54
2018-06-09T04:27:38.344Z,54
2018-06-09T04:28:40.342Z,54
2018-06-09T04:29:42.908Z,54
2018-06-09T04:30:44.906Z,54
2018-06-09T04:31:46.906Z,54
2018-06-09T04:32:48.908Z,55
2018-06-09T04:33:50.921Z,54
2018-06-09T04:34:52.923Z,54
2018-06-09T04:35:54.912Z,54
2018-06-09T04:36:56.918Z,54
2018-06-09T04:37:58.924Z,54
2018-06-09T04:39:00.915Z,54
2018-06-09T04:40:03.425Z,54
2018-06-09T04:41:05.381Z,54
2018-06-09T04:42:07.386Z,54
2018-06-09T04:43:09.771Z,54
2018-06-09T04:44:11.768Z,55
2018-06-09T04:45:13.782Z,55
2018-06-09T04:46:15.777Z,55
2018-06-09T04:47:17.773Z,55
2018-06-09T04:48:19.773Z,55
2018-06-09T04:49:21.769Z,55
2018-06-09T04:50:23.772Z,55
2018-06-09T04:51:25.771Z,54
2018-06-09T04:52:27.768Z,55
2018-06-09T04:53:30.153Z,55
2018-06-09T04:54:32.522Z,54
2018-06-09T04:55:35.214Z,54
2018-06-09T04:56:37.526Z,55
2018-06-09T04:57:39.529Z,55
2018-06-09T04:58:41.536Z,54
2018-06-09T04:59:43.821Z,54
2018-06-09T05:00:45.820Z,54
2018-06-09T05:01:47.815Z,54
2018-06-09T05:02:49.822Z,54
2018-06-09T05:03:51.834Z,55
2018-06-09T05:04:53.837Z,55
2018-06-09T05:05:55.833Z,54
2018-06-09T05:06:57.833Z,54
2018-06-09T05:07:59.834Z,55
2018-06-09T05:09:02.505Z,54
2018-06-09T05:10:04.508Z,54
2018-06-09T05:11:06.524Z,54
2018-06-09T05:12:08.816Z,54
2018-06-09T05:13:10.815Z,55
2018-06-09T05:14:12.814Z,54
2018-06-09T05:15:14.810Z,54
2018-06-09T05:16:16.813Z,54
2018-06-09T05:17:18.818Z,54
2018-06-09T05:18:21.202Z,54
2018-06-09T05:19:23.208Z,54
2018-06-09T05:20:25.202Z,54
2018-06-09T05:21:27.482Z,54
2018-06-09T05:22:29.495Z,54
2018-06-09T05:23:31.489Z,54
2018-06-09T05:24:33.777Z,55
2018-06-09T05:25:35.772Z,55
2018-06-09T05:26:37.776Z,54
2018-06-09T05:27:40.081Z,55
2018-06-09T05:28:42.463Z,54
2018-06-09T05:29:44.854Z,54
2018-06-09T05:30:46.853Z,54
2018-06-09T05:31:48.861Z,54
2018-06-09T05:32:51.432Z,55
2018-06-09T05:33:53.430Z,55
2018-06-09T05:34:55.439Z,55
2018-06-09T05:35:57.437Z,55
2018-06-09T05:36:59.431Z,54
2018-06-09T05:38:01.727Z,55
2018-06-09T05:39:04.009Z,55
2018-06-09T05:40:06.014Z,55
2018-06-09T05:41:08.020Z,54
2018-06-09T05:42:10.320Z,54
2018-06-09T05:43:12.708Z,55
2018-06-09T05:44:14.977Z,55
2018-06-09T05:45:16.985Z,55
2018-06-09T05:46:19.281Z,55
2018-06-09T05:47:21.281Z,55
2018-06-09T05:48:23.285Z,54
2018-06-09T05:49:26.052Z,54
2018-06-09T05:50:28.641Z,54
2018-06-09T05:51:30.650Z,53
2018-06-09T05:52:32.647Z,54
2018-06-09T05:53:34.649Z,53
2018-06-09T05:54:36.649Z,53
2018-06-09T05:55:38.670Z,54
2018-06-09T05:56:40.656Z,54
2018-06-09T05:57:42.655Z,53
2018-06-09T05:58:45.044Z,54
2018-06-09T05:59:47.443Z,54
2018-06-09T06:00:49.445Z,53
2018-06-09T06:01:51.738Z,53
2018-06-09T06:02:53.743Z,54
2018-06-09T06:03:55.794Z,54
2018-06-09T06:04:58.088Z,54
2018-06-09T06:06:00.077Z,54
2018-06-09T06:07:02.394Z,53
2018-06-09T06:08:04.396Z,53
2018-06-09T06:09:06.394Z,53
2018-06-09T06:10:08.409Z,53
2018-06-09T06:11:10.803Z,53
2018-06-09T06:12:12.802Z,53
2018-06-09T06:13:14.801Z,53
2018-06-09T06:14:16.802Z,53
2018-06-09T06:15:18.810Z,53
2018-06-09T06:16:20.814Z,53
2018-06-09T06:17:22.821Z,53
2018-06-09T06:18:24.832Z,52
2018-06-09T06:19:26.828Z,52
2018-06-09T06:20:29.113Z,52
2018-06-09T06:21:31.500Z,53
2018-06-09T06:22:33.502Z,52
2018-06-09T06:23:35.508Z,52
2018-06-09T06:24:37.502Z,53
2018-06-09T06:25:39.802Z,53
2018-06-09T06:26:42.389Z,53
2018-06-09T06:27:44.393Z,52
2018-06-09T06:28:47.066Z,52
2018-06-09T06:29:49.066Z,52
2018-06-09T06:30:51.454Z,52
2018-06-09T06:31:53.833Z,53
2018-06-09T06:32:56.072Z,53
2018-06-09T06:33:58.090Z,54
2018-06-09T06:35:00.083Z,53
2018-06-09T06:36:02.087Z,54
2018-06-09T06:37:04.090Z,53
2018-06-09T06:38:06.377Z,53
2018-06-09T06:39:08.395Z,53
2018-06-09T06:40:10.398Z,53
2018-06-09T06:41:12.392Z,53
2018-06-09T06:42:14.402Z,53
2018-06-09T06:43:16.406Z,53
2018-06-09T06:44:18.692Z,54
2018-06-09T06:45:20.703Z,54
2018-06-09T06:46:22.716Z,54
2018-06-09T06:47:24.718Z,53
2018-06-09T06:48:26.726Z,53
2018-06-09T06:49:29.692Z,53
2018-06-09T06:50:31.712Z,53
2018-06-09T06:51:33.715Z,53
2018-06-09T06:52:36.106Z,52
2018-06-09T06:53:38.117Z,52
2018-06-09T06:54:40.406Z,52
2018-06-09T06:55:42.409Z,52
2018-06-09T06:56:44.698Z,52
2018-06-09T06:57:47.097Z,53
2018-06-09T06:58:49.103Z,52
2018-06-09T06:59:51.091Z,52
2018-06-09T07:00:53.496Z,53
2018-06-09T07:01:55.508Z,53
2018-06-09T07:02:58.081Z,52
2018-06-09T07:04:00.371Z,52
2018-06-09T07:05:02.646Z,52
2018-06-09T07:06:04.939Z,51
2018-06-09T07:07:06.960Z,51
2018-06-09T07:08:08.963Z,52
2018-06-09T07:09:11.249Z,50
2018-06-09T07:10:13.250Z,50
2018-06-09T07:11:15.532Z,51
2018-06-09T07:12:17.535Z,51
2018-06-09T07:13:19.532Z,51
2018-06-09T07:14:21.550Z,50
2018-06-09T07:15:23.555Z,50
2018-06-09T07:16:25.559Z,50
2018-06-09T07:17:27.563Z,49
2018-06-09T07:18:29.574Z,50
2018-06-09T07:19:31.584Z,49
2018-06-09T07:20:33.597Z,49
2018-06-09T07:21:35.598Z,49
2018-06-09T07:22:37.616Z,49
2018-06-09T07:23:39.997Z,48
2018-06-09T07:24:42.002Z,49
2018-06-09T07:25:44.013Z,50
2018-06-09T07:26:46.018Z,49
2018-06-09T07:27:48.026Z,48
2018-06-09T07:28:50.308Z,49
2018-06-09T07:29:52.314Z,48
2018-06-09T07:30:54.330Z,47
2018-06-09T07:31:56.319Z,48
2018-06-09T07:32:58.343Z,47
2018-06-09T07:34:00.643Z,48
2018-06-09T07:35:03.068Z,47
2018-06-09T07:36:05.392Z,48
2018-06-09T07:37:07.397Z,47
2018-06-09T07:38:09.405Z,47
2018-06-09T07:39:11.409Z,47
2018-06-09T07:40:13.402Z,47
2018-06-09T07:41:15.409Z,46
2018-06-09T07:42:17.714Z,47
2018-06-09T07:43:19.721Z,47
2018-06-09T07:44:21.729Z,47
2018-06-09T07:45:23.739Z,46
2018-06-09T07:46:26.026Z,46
2018-06-09T07:47:28.428Z,45
2018-06-09T07:48:30.434Z,46
2018-06-09T07:49:32.440Z,46
2018-06-09T07:50:34.452Z,46
2018-06-09T07:51:36.459Z,45
2018-06-09T07:52:38.465Z,44
2018-06-09T07:53:40.477Z,45
2018-06-09T07:54:42.489Z,44
2018-06-09T07:55:44.506Z,44
2018-06-09T07:56:46.501Z,44
2018-06-09T07:57:48.515Z,44
2018-06-09T07:58:50.525Z,44
2018-06-09T07:59:52.530Z,44
2018-06-09T08:00:54.927Z,43
2018-06-09T08:01:56.945Z,43
2018-06-09T08:02:58.947Z,42
2018-06-09T08:04:00.946Z,42
2018-06-09T08:05:02.959Z,43
2018-06-09T08:06:04.977Z,43
2018-06-09T08:07:06.988Z,43
2018-06-09T08:08:08.993Z,42
2018-06-09T08:09:11.007Z,43
2018-06-09T08:10:13.025Z,43
2018-06-09T08:11:15.021Z,43
2018-06-09T08:12:17.027Z,44
2018-06-09T08:13:19.050Z,44
2018-06-09T08:14:21.065Z,44
2018-06-09T08:15:23.080Z,43
2018-06-09T08:16:25.091Z,42
2018-06-09T08:17:27.487Z,43
2018-06-09T08:18:29.771Z,43
2018-06-09T08:19:32.589Z,41
2018-06-09T08:20:34.925Z,41
2018-06-09T08:21:36.928Z,41
2018-06-09T08:22:38.957Z,41
2018-06-09T08:23:40.957Z,41
2018-06-09T08:24:43.256Z,42
2018-06-09T08:25:45.266Z,43
2018-06-09T08:26:47.274Z,43
2018-06-09T08:27:49.289Z,43
2018-06-09T08:28:51.676Z,42
2018-06-09T08:29:53.698Z,43
2018-06-09T08:30:55.710Z,43
2018-06-09T08:31:57.721Z,43
2018-06-09T08:32:59.737Z,43
2018-06-09T08:34:02.139Z,43
2018-06-09T08:35:04.479Z,42
2018-06-09T08:36:06.547Z,42
2018-06-09T08:37:08.501Z,43
2018-06-09T08:38:10.509Z,41
2018-06-09T08:39:12.512Z,41
2018-06-09T08:40:14.525Z,42
2018-06-09T08:41:17.224Z,41
2018-06-09T08:42:19.234Z,41
2018-06-09T08:43:21.245Z,41
2018-06-09T08:44:23.546Z,41
2018-06-09T08:45:25.545Z,41
2018-06-09T08:46:27.563Z,40
2018-06-09T08:47:29.576Z,40
2018-06-09T08:48:31.587Z,40
2018-06-09T08:49:33.597Z,40
2018-06-09T08:50:35.896Z,40
2018-06-09T08:51:37.901Z,40
2018-06-09T08:52:39.918Z,39
2018-06-09T08:53:41.936Z,40
2018-06-09T08:54:44.237Z,39
2018-06-09T08:55:46.243Z,40
2018-06-09T08:56:48.258Z,39
2018-06-09T08:57:50.570Z,38
2018-06-09T08:58:52.584Z,38
2018-06-09T08:59:54.596Z,39
2018-06-09T09:00:56.611Z,39
2018-06-09T09:01:58.628Z,40
2018-06-09T09:03:00.654Z,39
2018-06-09T09:04:02.666Z,39
2018-06-09T09:05:05.054Z,39
2018-06-09T09:06:07.348Z,40
2018-06-09T09:07:09.368Z,39
2018-06-09T09:08:11.377Z,39
2018-06-09T09:09:13.957Z,38
2018-06-09T09:10:16.250Z,38
2018-06-09T09:11:18.933Z,37
2018-06-09T09:12:20.939Z,36
2018-06-09T09:13:23.633Z,38
2018-06-09T09:14:25.659Z,37
2018-06-09T09:15:27.958Z,38
2018-06-09T09:16:30.406Z,37
2018-06-09T09:17:32.414Z,36
2018-06-09T09:18:34.706Z,36
2018-06-09T09:19:37.112Z,35
2018-06-09T09:20:39.125Z,36
2018-06-09T09:21:41.141Z,36
2018-06-09T09:22:43.462Z,35
2018-06-09T09:23:45.761Z,35
2018-06-09T09:24:47.767Z,35
2018-06-09T09:25:49.841Z,35
2018-06-09T09:26:51.807Z,35
2018-06-09T09:27:53.828Z,35
2018-06-09T09:28:55.841Z,35
2018-06-09T09:29:57.851Z,35
2018-06-09T09:31:00.177Z,35
2018-06-09T09:32:02.801Z,35
2018-06-09T09:33:05.080Z,35
2018-06-09T09:34:07.669Z,34
2018-06-09T09:35:09.677Z,35
2018-06-09T09:36:12.071Z,35
2018-06-09T09:37:14.082Z,35
2018-06-09T09:38:16.111Z,35
2018-06-09T09:39:18.756Z,35
2018-06-09T09:40:20.726Z,35
2018-06-09T09:41:23.022Z,35
2018-06-09T09:42:25.036Z,35
2018-06-09T09:43:27.071Z,35
2018-06-09T09:44:29.460Z,35
2018-06-09T09:45:31.756Z,36
2018-06-09T09:46:33.781Z,35
2018-06-09T09:47:35.788Z,35
2018-06-09T09:48:38.083Z,34
2018-06-09T09:49:40.101Z,35
2018-06-09T09:50:42.122Z,35
2018-06-09T09:51:44.147Z,34
2018-06-09T09:52:46.158Z,34
2018-06-09T09:53:48.196Z,34
2018-06-09T09:54:50.660Z,34
2018-06-09T09:55:53.012Z,34
2018-06-09T09:56:55.028Z,33
2018-06-09T09:57:57.058Z,32
2018-06-09T09:58:59.076Z,34
2018-06-09T10:00:01.373Z,33
2018-06-09T10:01:03.681Z,33
2018-06-09T10:02:05.708Z,33
2018-06-09T10:03:08.014Z,33
2018-06-09T10:04:10.030Z,32
2018-06-09T10:05:12.049Z,32
2018-06-09T10:06:14.075Z,33
2018-06-09T10:07:16.080Z,32
2018-06-09T10:08:18.107Z,32
2018-06-09T10:09:20.420Z,32
2018-06-09T10:10:22.440Z,33
2018-06-09T10:11:24.477Z,32
2018-06-09T10:12:26.497Z,32
2018-06-09T10:13:28.520Z,31
2018-06-09T10:14:30.589Z,31
2018-06-09T10:15:32.862Z,31
2018-06-09T10:16:35.284Z,31
2018-06-09T10:17:37.292Z,31
2018-06-09T10:18:39.315Z,31
2018-06-09T10:19:41.334Z,31
2018-06-09T10:20:43.362Z,30
2018-06-09T10:21:45.691Z,30
2018-06-09T10:22:47.708Z,30
2018-06-09T10:23:50.017Z,31
2018-06-09T10:24:52.428Z,31
2018-06-09T10:25:54.435Z,31
2018-06-09T10:26:56.771Z,31
2018-06-09T10:27:58.794Z,30
2018-06-09T10:29:01.209Z,29
2018-06-09T10:30:03.240Z,30
2018-06-09T10:31:05.822Z,31
2018-06-09T10:32:08.151Z,30
2018-06-09T10:33:10.157Z,29
2018-06-09T10:34:12.573Z,29
2018-06-09T10:35:14.597Z,30
2018-06-09T10:36:16.622Z,30
2018-06-09T10:37:18.652Z,30
2018-06-09T10:38:20.682Z,30
2018-06-09T10:39:22.703Z,30
2018-06-09T10:40:25.045Z,30
2018-06-09T10:41:27.051Z,29
2018-06-09T10:42:29.369Z,30
2018-06-09T10:43:31.391Z,29
2018-06-09T10:44:33.417Z,29
2018-06-09T10:45:35.726Z,29
2018-06-09T10:46:37.751Z,30
2018-06-09T10:47:39.787Z,29
2018-06-09T10:48:42.083Z,29
2018-06-09T10:49:44.096Z,29
2018-06-09T10:50:46.508Z,29
2018-06-09T10:51:48.544Z,28
2018-06-09T10:52:50.576Z,29
2018-06-09T10:53:52.593Z,29
2018-06-09T10:54:54.615Z,29
2018-06-09T10:55:56.636Z,28
2018-06-09T10:56:58.663Z,29
2018-06-09T10:58:00.687Z,28
2018-06-09T10:59:02.717Z,28
2018-06-09T11:00:04.753Z,29
2018-06-09T11:01:07.346Z,29
2018-06-09T11:02:09.373Z,28
2018-06-09T11:03:11.396Z,28
2018-06-09T11:04:13.422Z,29
2018-06-09T11:05:15.469Z,29
2018-06-09T11:06:17.486Z,28
2018-06-09T11:07:19.515Z,29
2018-06-09T11:08:21.541Z,28
2018-06-09T11:09:23.568Z,29
2018-06-09T11:10:25.589Z,29
2018-06-09T11:11:27.616Z,29
2018-06-09T11:12:29.941Z,28
2018-06-09T11:13:31.952Z,29
2018-06-09T11:14:33.981Z,29
2018-06-09T11:15:36.019Z,28
2018-06-09T11:16:38.327Z,28
2018-06-09T11:17:40.636Z,28
2018-06-09T11:18:42.653Z,28
2018-06-09T11:19:44.680Z,28
2018-06-09T11:20:46.695Z,28
2018-06-09T11:21:49.010Z,28
2018-06-09T11:22:51.043Z,29
2018-06-09T11:23:53.349Z,29
2018-06-09T11:24:55.752Z,29
2018-06-09T11:25:57.773Z,28
2018-06-09T11:26:59.807Z,28
2018-06-09T11:28:02.112Z,28
2018-06-09T11:29:04.138Z,29
2018-06-09T11:30:06.163Z,29
2018-06-09T11:31:08.177Z,27
2018-06-09T11:32:10.212Z,27
2018-06-09T11:33:12.237Z,28
2018-06-09T11:34:14.647Z,27
2018-06-09T11:35:16.677Z,27
2018-06-09T11:36:18.697Z,27
2018-06-09T11:37:20.733Z,27
2018-06-09T11:38:22.756Z,26
2018-06-09T11:39:25.068Z,26
2018-06-09T11:40:27.101Z,26
2018-06-09T11:41:29.111Z,27
2018-06-09T11:42:31.143Z,26
2018-06-09T11:43:33.170Z,25
2018-06-09T11:44:35.200Z,25
2018-06-09T11:45:37.232Z,25
2018-06-09T11:46:39.258Z,25
2018-06-09T11:47:41.290Z,26
2018-06-09T11:48:43.312Z,25
2018-06-09T11:49:45.640Z,26
2018-06-09T11:50:48.052Z,26
2018-06-09T11:51:50.366Z,25
2018-06-09T11:52:52.680Z,25
2018-06-09T11:53:54.703Z,24
2018-06-09T11:54:56.730Z,25
2018-06-09T11:55:58.773Z,25
2018-06-09T11:57:00.799Z,24
2018-06-09T11:58:03.492Z,25
2018-06-09T11:59:05.527Z,25
2018-06-09T12:00:07.559Z,25
2018-06-09T12:01:09.576Z,24
2018-06-09T12:02:11.596Z,24
2018-06-09T12:03:13.633Z,24
2018-06-09T12:04:15.663Z,26
2018-06-09T12:05:17.685Z,26
2018-06-09T12:06:19.716Z,27
2018-06-09T12:07:21.750Z,26
2018-06-09T12:08:23.761Z,26
2018-06-09T12:09:25.792Z,25
2018-06-09T12:10:27.816Z,26
2018-06-09T12:11:29.842Z,26
2018-06-09T12:12:31.873Z,25
2018-06-09T12:13:33.895Z,25
2018-06-09T12:14:36.298Z,25
2018-06-09T12:15:38.327Z,26
2018-06-09T12:16:40.354Z,25
2018-06-09T12:17:42.388Z,26
2018-06-09T12:18:44.412Z,26
2018-06-09T12:19:46.438Z,26
2018-06-09T12:20:48.464Z,25
2018-06-09T12:21:50.473Z,25
2018-06-09T12:22:52.504Z,25
2018-06-09T12:23:54.539Z,25
2018-06-09T12:24:57.032Z,25
2018-06-09T12:25:59.416Z,24
2018-06-09T12:27:01.452Z,25
2018-06-09T12:28:03.469Z,25
2018-06-09T12:29:05.774Z,25
2018-06-09T12:30:07.800Z,25
2018-06-09T12:31:09.826Z,25
2018-06-09T12:32:11.858Z,25
2018-06-09T12:33:13.894Z,24
2018-06-09T12:34:15.921Z,26
2018-06-09T12:35:17.958Z,25
2018-06-09T12:36:19.977Z,25
2018-06-09T12:37:22.011Z,26
2018-06-09T12:38:24.031Z,26
2018-06-09T12:39:26.109Z,25
2018-06-09T12:40:28.088Z,25
2018-06-09T12:41:30.115Z,26
2018-06-09T12:42:32.139Z,26
2018-06-09T12:43:34.182Z,26
2018-06-09T12:44:36.197Z,24
2018-06-09T12:45:38.232Z,25
2018-06-09T12:46:40.264Z,25
2018-06-09T12:47:42.290Z,25
2018-06-09T12:48:44.359Z,25
2018-06-09T12:49:46.345Z,25
2018-06-09T12:50:48.371Z,26
2018-06-09T12:51:50.398Z,25
2018-06-09T12:52:52.426Z,25
2018-06-09T12:53:54.839Z,25
2018-06-09T12:54:56.877Z,25
2018-06-09T12:55:58.885Z,25
2018-06-09T12:57:00.908Z,26
2018-06-09T12:58:02.940Z,26
2018-06-09T12:59:05.659Z,26
2018-06-09T13:00:07.681Z,27
2018-06-09T13:01:09.717Z,26
2018-06-09T13:02:12.339Z,25
2018-06-09T13:03:14.654Z,26
2018-06-09T13:04:16.705Z,25
2018-06-09T13:05:18.722Z,26
2018-06-09T13:06:20.754Z,27
2018-06-09T13:07:22.780Z,27
2018-06-09T13:08:25.081Z,27
2018-06-09T13:09:27.393Z,27
2018-06-09T13:10:29.417Z,28
2018-06-09T13:11:31.442Z,28
2018-06-09T13:12:33.480Z,27
2018-06-09T13:13:35.498Z,27
2018-06-09T13:14:38.099Z,27
2018-06-09T13:15:40.413Z,27
2018-06-09T13:16:42.449Z,27
2018-06-09T13:17:44.479Z,26
2018-06-09T13:18:46.510Z,26
2018-06-09T13:19:48.552Z,26
2018-06-09T13:20:50.580Z,26
2018-06-09T13:21:52.925Z,26
2018-06-09T13:22:54.958Z,27
2018-06-09T13:23:56.989Z,25
2018-06-09T13:24:59.016Z,25
2018-06-09T13:26:01.052Z,26
2018-06-09T13:27:03.363Z,26
2018-06-09T13:28:05.401Z,25
2018-06-09T13:29:07.430Z,25
2018-06-09T13:30:09.464Z,25
2018-06-09T13:31:11.502Z,25
2018-06-09T13:32:13.518Z,25
2018-06-09T13:33:15.552Z,26
2018-06-09T13:34:17.579Z,26
2018-06-09T13:35:19.978Z,26
2018-06-09T13:36:22.528Z,27
2018-06-09T13:37:24.841Z,27
2018-06-09T13:38:26.868Z,27
2018-06-09T13:39:28.906Z,27
2018-06-09T13:40:30.924Z,26
2018-06-09T13:41:32.956Z,25
2018-06-09T13:42:34.998Z,26
2018-06-09T13:43:37.030Z,26
2018-06-09T13:44:39.074Z,26
2018-06-09T13:45:41.372Z,26
2018-06-09T13:46:43.854Z,27
2018-06-09T13:47:45.815Z,28
2018-06-09T13:48:47.853Z,28
2018-06-09T13:49:49.871Z,28
2018-06-09T13:50:51.899Z,28
2018-06-09T13:51:53.933Z,28
2018-06-09T13:52:55.959Z,28
2018-06-09T13:53:58.258Z,28
2018-06-09T13:55:00.291Z,27
2018-06-09T13:56:02.331Z,27
2018-06-09T13:57:04.801Z,26
2018-06-09T13:58:06.827Z,25
2018-06-09T13:59:09.134Z,25
2018-06-09T14:00:11.445Z,25
2018-06-09T14:01:13.478Z,25
2018-06-09T14:02:15.508Z,25
2018-06-09T14:03:17.846Z,26
2018-06-09T14:04:20.164Z,25
2018-06-09T14:05:22.495Z,25
2018-06-09T14:06:24.546Z,25
2018-06-09T14:07:26.570Z,24
2018-06-09T14:08:28.868Z,24
2018-06-09T14:09:31.184Z,25
2018-06-09T14:10:33.213Z,25
2018-06-09T14:11:35.246Z,25
2018-06-09T14:12:37.272Z,26
2018-06-09T14:13:39.299Z,26
2018-06-09T14:14:41.336Z,26
2018-06-09T14:15:43.356Z,24
2018-06-09T14:16:45.391Z,24
2018-06-09T14:17:47.478Z,24
2018-06-09T14:18:49.463Z,24
2018-06-09T14:19:51.777Z,26
2018-06-09T14:20:53.814Z,26
2018-06-09T14:21:55.844Z,27
2018-06-09T14:22:57.883Z,27
2018-06-09T14:23:59.909Z,27
2018-06-09T14:25:01.968Z,27
2018-06-09T14:26:04.575Z,26
2018-06-09T14:27:06.594Z,26
2018-06-09T14:28:08.636Z,26
2018-06-09T14:29:11.344Z,25
2018-06-09T14:30:13.657Z,26
2018-06-09T14:31:15.687Z,25
2018-06-09T14:32:17.716Z,25
2018-06-09T14:33:19.758Z,25
2018-06-09T14:34:22.165Z,25
2018-06-09T14:35:24.197Z,25
2018-06-09T14:36:26.233Z,25
2018-06-09T14:37:28.264Z,25
2018-06-09T14:38:30.297Z,26
2018-06-09T14:39:32.325Z,26
2018-06-09T14:40:34.358Z,26
2018-06-09T14:41:36.403Z,27
2018-06-09T14:42:38.439Z,26
2018-06-09T14:43:40.468Z,26
2018-06-09T14:44:42.798Z,26
2018-06-09T14:45:44.831Z,26